createdAt,value
2018-11-02T00:01:17.358Z,100866.95
2018-11-02T00:03:45.101Z,100868.36
2018-11-02T00:06:12.946Z,100872.27
2018-11-02T00:08:40.695Z,100867.20
2018-11-02T00:11:08.414Z,100873.73
2018-11-02T00:13:36.134Z,100869.59
2018-11-02T00:16:04.149Z,100867.11
2018-11-02T00:18:31.910Z,100864.28
2018-11-02T00:20:59.650Z,100870.30
2018-11-02T00:23:27.429Z,100871.17
2018-11-02T00:25:55.152Z,100869.69
2018-11-02T00:28:22.878Z,100864.78
2018-11-02T00:30:50.610Z,100863.70
2018-11-02T00:33:18.330Z,100859.39
2018-11-02T00:35:46.059Z,100864.44
2018-11-02T00:38:13.783Z,100862.50
2018-11-02T00:40:41.520Z,100860.50
2018-11-02T00:43:09.269Z,100861.67
2018-11-02T00:45:37.047Z,100862.28
2018-11-02T00:48:05.136Z,100857.61
2018-11-02T00:50:32.908Z,100855.18
2018-11-02T00:53:00.635Z,100849.70
2018-11-02T00:55:28.388Z,100852.23
2018-11-02T00:57:56.172Z,100851.70
2018-11-02T01:00:23.947Z,100856.74
2018-11-02T01:02:51.694Z,100854.10
2018-11-02T01:05:19.431Z,100857.83
2018-11-02T01:07:47.233Z,100853.70
2018-11-02T01:10:14.957Z,100850.47
2018-11-02T01:12:42.702Z,100845.89
2018-11-02T01:15:10.692Z,100847.92
2018-11-02T01:17:38.487Z,100846.27
2018-11-02T01:20:08.087Z,100854.48
2018-11-02T01:22:35.811Z,100856.96
2018-11-02T01:25:03.670Z,100851.20
2018-11-02T01:27:31.425Z,100853.47
2018-11-02T01:29:59.177Z,100859.97
2018-11-02T01:32:26.914Z,100861.52
2018-11-02T01:34:54.659Z,100863.39
2018-11-02T01:37:22.422Z,100863.77
2018-11-02T01:39:50.162Z,100857.68
2018-11-02T01:42:17.898Z,100863.38
2018-11-02T01:44:45.640Z,100856.50
2018-11-02T01:47:13.462Z,100854.81
2018-11-02T01:49:41.223Z,100856.36
2018-11-02T01:52:08.988Z,100857.38
2018-11-02T01:54:36.767Z,100857.45
2018-11-02T01:57:04.684Z,100854.91
2018-11-02T01:59:32.419Z,100846.76
2018-11-02T02:02:00.157Z,100856.30
2018-11-02T02:04:27.891Z,100856.47
2018-11-02T02:06:55.647Z,100856.53
2018-11-02T02:09:23.362Z,100858.23
2018-11-02T02:11:51.098Z,100852.06
2018-11-02T02:14:18.834Z,100849.12
2018-11-02T02:16:46.566Z,100846.92
2018-11-02T02:19:14.334Z,100848.37
2018-11-02T02:21:42.071Z,100847.23
2018-11-02T02:24:09.785Z,100848.94
2018-11-02T02:26:37.508Z,100858.45
2018-11-02T02:29:05.568Z,100863.00
2018-11-02T02:31:33.322Z,100865.88
2018-11-02T02:34:01.077Z,100861.90
2018-11-02T02:36:28.812Z,100860.73
2018-11-02T02:38:56.610Z,100856.59
2018-11-02T02:41:24.367Z,100857.75
2018-11-02T02:43:52.210Z,100857.30
2018-11-02T02:46:19.945Z,100854.49
2018-11-02T02:48:47.690Z,100862.05
2018-11-02T02:51:15.441Z,100858.00
2018-11-02T02:53:43.363Z,100853.72
2018-11-02T02:56:11.085Z,100861.60
2018-11-02T02:58:38.854Z,100861.52
2018-11-02T03:01:06.612Z,100858.52
2018-11-02T03:03:34.354Z,100857.44
2018-11-02T03:06:02.090Z,100863.46
2018-11-02T03:08:29.809Z,100858.95
2018-11-02T03:10:57.673Z,100861.27
2018-11-02T03:13:25.299Z,100856.44
2018-11-02T03:15:53.036Z,100850.43
2018-11-02T03:18:20.857Z,100856.42
2018-11-02T03:20:48.531Z,100861.14
2018-11-02T03:23:16.303Z,100859.39
2018-11-02T03:25:44.031Z,100858.71
2018-11-02T03:28:11.766Z,100862.54
2018-11-02T03:30:39.502Z,100864.63
2018-11-02T03:33:07.257Z,100860.22
2018-11-02T03:35:34.977Z,100858.45
2018-11-02T03:38:02.728Z,100858.45
2018-11-02T03:40:30.460Z,100861.42
2018-11-02T03:42:58.205Z,100849.41
2018-11-02T03:45:25.939Z,100851.05
2018-11-02T03:47:53.780Z,100854.66
2018-11-02T03:50:21.846Z,100863.93
2018-11-02T03:52:49.573Z,100863.29
2018-11-02T03:55:17.350Z,100858.33
2018-11-02T03:57:45.099Z,100867.39
2018-11-02T04:00:13.339Z,100863.29
2018-11-02T04:02:41.143Z,100862.98
2018-11-02T04:05:09.746Z,100863.81
2018-11-02T04:07:37.504Z,100865.92
2018-11-02T04:10:06.672Z,100858.23
2018-11-02T04:12:34.399Z,100857.93
2018-11-02T04:15:02.213Z,100861.67
2018-11-02T04:17:29.958Z,100869.78
2018-11-02T04:19:57.739Z,100868.94
2018-11-02T04:22:25.502Z,100864.05
2018-11-02T04:24:53.286Z,100865.83
2018-11-02T04:27:21.070Z,100870.41
2018-11-02T04:29:48.819Z,100868.77
2018-11-02T04:32:16.567Z,100866.52
2018-11-02T04:34:44.318Z,100871.22
2018-11-02T04:37:12.083Z,100874.23
2018-11-02T04:39:39.800Z,100868.17
2018-11-02T04:42:07.574Z,100863.16
2018-11-02T04:44:35.294Z,100866.84
2018-11-02T04:47:03.096Z,100869.23
2018-11-02T04:49:30.843Z,100870.41
2018-11-02T04:51:58.631Z,100865.52
2018-11-02T04:54:26.402Z,100860.50
2018-11-02T04:56:54.186Z,100865.03
2018-11-02T04:59:22.010Z,100868.92
2018-11-02T05:01:49.742Z,100869.09
2018-11-02T05:04:17.470Z,100869.14
2018-11-02T05:06:45.214Z,100872.20
2018-11-02T05:09:12.942Z,100876.58
2018-11-02T05:11:40.700Z,100882.17
2018-11-02T05:14:08.922Z,100889.05
2018-11-02T05:16:36.651Z,100891.84
2018-11-02T05:19:04.591Z,100889.59
2018-11-02T05:21:32.351Z,100895.95
2018-11-02T05:24:00.080Z,100893.99
2018-11-02T05:26:27.839Z,100901.02
2018-11-02T05:28:55.558Z,100903.44
2018-11-02T05:31:23.337Z,100909.52
2018-11-02T05:33:51.074Z,100906.64
2018-11-02T05:36:18.854Z,100906.82
2018-11-02T05:38:46.615Z,100915.83
2018-11-02T05:41:14.338Z,100923.64
2018-11-02T05:43:42.098Z,100923.27
2018-11-02T05:46:09.841Z,100926.45
2018-11-02T05:48:37.576Z,100934.97
2018-11-02T05:51:05.361Z,100937.21
2018-11-02T05:53:33.141Z,100941.59
2018-11-02T05:56:00.987Z,100942.50
2018-11-02T05:58:28.856Z,100942.58
2018-11-02T06:00:56.643Z,100943.91
2018-11-02T06:03:24.365Z,100947.67
2018-11-02T06:05:52.095Z,100952.73
2018-11-02T06:08:19.843Z,100953.27
2018-11-02T06:10:47.577Z,100953.38
2018-11-02T06:13:15.517Z,100958.67
2018-11-02T06:15:43.406Z,100951.39
2018-11-02T06:18:11.434Z,100942.83
2018-11-02T06:20:39.194Z,100939.52
2018-11-02T06:23:06.966Z,100944.45
2018-11-02T06:25:34.768Z,100943.60
2018-11-02T06:28:02.543Z,100944.47
2018-11-02T06:30:30.308Z,100939.02
2018-11-02T06:32:58.023Z,100941.26
2018-11-02T06:35:25.912Z,100942.52
2018-11-02T06:37:53.691Z,100946.96
2018-11-02T06:40:21.453Z,100942.17
2018-11-02T06:42:49.223Z,100939.17
2018-11-02T06:45:16.992Z,100939.16
2018-11-02T06:47:44.771Z,100941.52
2018-11-02T06:50:12.530Z,100945.17
2018-11-02T06:52:40.270Z,100944.17
2018-11-02T06:55:08.940Z,100945.09
2018-11-02T06:57:36.700Z,100942.70
2018-11-02T07:00:07.568Z,100943.23
2018-11-02T07:02:34.955Z,100946.69
2018-11-02T07:05:02.723Z,100942.34
2018-11-02T07:07:30.507Z,100945.81
2018-11-02T07:09:58.118Z,100948.92
2018-11-02T07:12:25.814Z,100940.80
2018-11-02T07:14:53.556Z,100946.33
2018-11-02T07:17:21.307Z,100957.28
2018-11-02T07:19:48.998Z,100960.25
2018-11-02T07:22:16.699Z,100956.97
2018-11-02T07:24:44.414Z,100952.83
2018-11-02T07:27:12.105Z,100955.48
2018-11-02T07:29:39.845Z,100952.14
2018-11-02T07:32:07.593Z,100942.70
2018-11-02T07:34:37.101Z,100947.07
2018-11-02T07:37:04.944Z,100942.08
2018-11-02T07:39:33.727Z,100942.77
2018-11-02T07:42:01.894Z,100943.55
2018-11-02T07:44:29.702Z,100944.34
2018-11-02T07:46:58.163Z,100944.34
2018-11-02T07:49:26.221Z,100943.70
2018-11-02T07:51:53.966Z,100942.95
2018-11-02T07:54:21.971Z,100936.52
2018-11-02T07:56:49.738Z,100943.95
2018-11-02T07:59:17.483Z,100943.70
2018-11-02T08:01:45.787Z,100948.23
2018-11-02T08:04:13.499Z,100947.22
2018-11-02T08:06:41.217Z,100944.80
2018-11-02T08:09:10.974Z,100946.36
2018-11-02T08:11:38.775Z,100948.45
2018-11-02T08:14:06.652Z,100947.91
2018-11-02T08:16:34.579Z,100937.30
2018-11-02T08:19:16.267Z,100941.06
2018-11-02T08:22:15.231Z,100933.89
2018-11-02T08:39:08.025Z,100934.88
2018-11-02T08:41:36.218Z,100941.38
2018-11-02T08:44:04.061Z,100933.48
2018-11-02T08:46:31.825Z,100941.63
2018-11-02T08:48:59.507Z,100934.03
2018-11-02T08:51:27.241Z,100926.37
2018-11-02T08:53:54.935Z,100927.47
2018-11-02T08:56:22.645Z,100922.16
2018-11-02T08:58:52.558Z,100914.13
2018-11-02T09:01:20.338Z,100915.23
2018-11-02T09:03:48.027Z,100913.23
2018-11-02T09:06:15.698Z,100911.91
2018-11-02T09:08:43.382Z,100895.78
2018-11-02T09:11:11.143Z,100898.22
2018-11-02T09:13:38.876Z,100890.41
2018-11-02T09:16:06.637Z,100880.98
2018-11-02T09:18:34.429Z,100883.47
2018-11-02T09:21:02.168Z,100885.88
2018-11-02T09:23:29.960Z,100875.25
2018-11-02T09:25:57.711Z,100879.84
2018-11-02T09:28:25.516Z,100879.53
2018-11-02T09:30:53.262Z,100877.64
2018-11-02T09:33:21.047Z,100878.86
2018-11-02T09:35:48.778Z,100866.34
2018-11-02T09:38:16.502Z,100864.51
2018-11-02T09:40:44.259Z,100864.97
2018-11-02T09:43:12.282Z,100869.88
2018-11-02T09:45:40.130Z,100863.18
2018-11-02T09:48:07.854Z,100852.42
2018-11-02T09:50:35.683Z,100849.42
2018-11-02T09:53:03.571Z,100850.78
2018-11-02T09:55:31.334Z,100841.49
2018-11-02T09:57:59.127Z,100841.84
2018-11-02T10:00:26.926Z,100842.28
2018-11-02T10:02:54.738Z,100835.97
2018-11-02T10:05:22.588Z,100844.69
2018-11-02T10:07:50.413Z,100834.31
2018-11-02T10:10:18.207Z,100830.75
2018-11-02T10:12:45.987Z,100830.30
2018-11-02T10:15:14.859Z,100831.73
2018-11-02T10:17:42.709Z,100827.61
2018-11-02T10:20:11.129Z,100825.16
2018-11-02T10:22:38.973Z,100821.33
2018-11-02T10:25:07.449Z,100814.62
2018-11-02T10:27:35.822Z,100814.26
2018-11-02T10:30:03.971Z,100807.16
2018-11-02T10:32:31.888Z,100811.89
2018-11-02T10:35:00.350Z,100801.70
2018-11-02T10:37:28.244Z,100799.44
2018-11-02T10:39:56.177Z,100796.94
2018-11-02T10:42:24.085Z,100796.81
2018-11-02T10:44:52.091Z,100804.89
2018-11-02T10:47:20.363Z,100794.94
2018-11-02T10:49:48.130Z,100791.64
2018-11-02T10:52:15.887Z,100782.06
2018-11-02T10:54:43.716Z,100776.47
2018-11-02T10:57:11.434Z,100766.99
2018-11-02T10:59:39.219Z,100764.28
2018-11-02T11:02:13.338Z,100763.87
2018-11-02T11:04:41.138Z,100760.40
2018-11-02T11:07:08.895Z,100759.48
2018-11-02T11:09:36.762Z,100747.85
2018-11-02T11:12:04.641Z,100752.37
2018-11-02T11:14:32.321Z,100745.84
2018-11-02T11:17:00.106Z,100744.00
2018-11-02T11:19:28.552Z,100740.70
2018-11-02T11:21:56.350Z,100737.28
2018-11-02T11:24:24.116Z,100735.25
2018-11-02T11:26:51.894Z,100725.94
2018-11-02T11:29:19.711Z,100723.75
2018-11-02T11:31:47.471Z,100716.06
2018-11-02T11:34:15.318Z,100712.44
2018-11-02T11:36:43.123Z,100707.12
2018-11-02T11:39:12.614Z,100710.45
2018-11-02T11:41:40.398Z,100707.33
2018-11-02T11:44:08.206Z,100705.78
2018-11-02T11:46:36.031Z,100692.45
2018-11-02T11:49:04.387Z,100689.91
2018-11-02T11:51:32.180Z,100687.56
2018-11-02T11:53:59.986Z,100686.52
2018-11-02T11:56:27.758Z,100681.95
2018-11-02T11:58:55.558Z,100680.91
2018-11-02T12:01:23.430Z,100681.29
2018-11-02T12:03:51.201Z,100676.52
2018-11-02T12:06:19.011Z,100679.97
2018-11-02T12:08:46.823Z,100683.17
2018-11-02T12:11:14.613Z,100680.63
2018-11-02T12:13:42.446Z,100681.37
2018-11-02T12:16:10.257Z,100682.80
2018-11-02T12:18:38.010Z,100677.48
2018-11-02T12:21:06.202Z,100679.56
2018-11-02T12:23:34.083Z,100674.42
2018-11-02T12:26:01.864Z,100674.52
2018-11-02T12:28:29.658Z,100663.77
2018-11-02T12:30:57.419Z,100676.42
2018-11-02T12:33:25.450Z,100671.95
2018-11-02T12:35:53.203Z,100667.55
2018-11-02T12:38:20.946Z,100664.25
2018-11-02T12:40:48.711Z,100664.91
2018-11-02T12:43:17.582Z,100656.73
2018-11-02T12:45:45.313Z,100654.25
2018-11-02T12:48:13.073Z,100661.48
2018-11-02T12:50:40.941Z,100658.07
2018-11-02T12:53:08.664Z,100656.33
2018-11-02T12:55:36.418Z,100655.20
2018-11-02T12:58:04.311Z,100659.95
2018-11-02T13:00:32.057Z,100656.52
2018-11-02T13:02:59.842Z,100653.85
2018-11-02T13:05:28.634Z,100658.95
2018-11-02T13:07:56.359Z,100660.86
2018-11-02T13:10:24.189Z,100654.80
2018-11-02T13:12:51.978Z,100660.78
2018-11-02T13:15:21.850Z,100660.48
2018-11-02T13:17:49.926Z,100653.16
2018-11-02T13:20:17.789Z,100658.13
2018-11-02T13:22:46.571Z,100656.05
2018-11-02T13:25:15.716Z,100658.02
2018-11-02T13:27:43.936Z,100649.45
2018-11-02T13:30:11.946Z,100645.84
2018-11-02T13:32:39.883Z,100647.76
2018-11-02T13:35:10.100Z,100646.13
2018-11-02T13:37:37.875Z,100647.15
2018-11-02T13:40:07.070Z,100641.16
2018-11-02T13:42:34.857Z,100643.34
2018-11-02T13:45:02.733Z,100640.77
2018-11-02T13:47:30.490Z,100642.97
2018-11-02T13:49:58.334Z,100646.56
2018-11-02T13:52:26.133Z,100644.92
2018-11-02T13:54:53.895Z,100640.37
2018-11-02T13:57:21.683Z,100644.84
2018-11-02T13:59:49.445Z,100638.69
2018-11-02T14:02:17.209Z,100645.93
2018-11-02T14:04:44.986Z,100641.71
2018-11-02T14:07:12.753Z,100640.05
2018-11-02T14:09:40.474Z,100641.10
2018-11-02T14:12:08.292Z,100640.55
2018-11-02T14:14:36.051Z,100648.30
2018-11-02T14:17:04.753Z,100643.09
2018-11-02T14:19:32.506Z,100642.23
2018-11-02T14:22:00.271Z,100647.55
2018-11-02T14:24:28.030Z,100643.53
2018-11-02T14:26:55.786Z,100640.55
2018-11-02T14:29:23.600Z,100632.75
2018-11-02T14:31:51.327Z,100643.02
2018-11-02T14:34:19.074Z,100642.88
2018-11-02T14:36:46.826Z,100640.79
2018-11-02T14:39:14.962Z,100642.02
2018-11-02T14:41:43.812Z,100642.03
2018-11-02T14:44:11.575Z,100640.32
2018-11-02T14:46:39.722Z,100637.88
2018-11-02T14:49:07.545Z,100636.16
2018-11-02T14:51:35.554Z,100637.78
2018-11-02T14:54:03.386Z,100639.69
2018-11-02T14:56:31.150Z,100641.60
2018-11-02T14:58:59.388Z,100646.63
2018-11-02T15:01:27.655Z,100650.16
2018-11-02T15:03:55.460Z,100645.92
2018-11-02T15:06:23.224Z,100650.88
2018-11-02T15:08:50.986Z,100648.77
2018-11-02T15:11:18.835Z,100650.48
2018-11-02T15:13:46.612Z,100658.17
2018-11-02T15:16:14.489Z,100661.86
2018-11-02T15:18:42.241Z,100666.99
2018-11-02T15:21:10.014Z,100671.53
2018-11-02T15:23:37.771Z,100666.48
2018-11-02T15:26:05.874Z,100666.19
2018-11-02T15:28:33.637Z,100671.98
2018-11-02T15:31:01.413Z,100680.59
2018-11-02T15:33:29.159Z,100676.79
2018-11-02T15:35:56.917Z,100679.36
2018-11-02T15:38:24.734Z,100683.53
2018-11-02T15:40:52.462Z,100688.37
2018-11-02T15:43:20.227Z,100688.42
2018-11-02T15:45:47.958Z,100691.44
2018-11-02T15:48:15.826Z,100693.07
2018-11-02T15:50:43.596Z,100697.75
2018-11-02T15:53:11.372Z,100700.17
2018-11-02T15:55:39.102Z,100706.84
2018-11-02T15:58:06.864Z,100706.64
2018-11-02T16:00:34.674Z,100704.05
2018-11-02T16:03:02.401Z,100704.45
2018-11-02T16:05:30.154Z,100707.11
2018-11-02T16:07:57.930Z,100709.69
2018-11-02T16:10:25.683Z,100711.73
2018-11-02T16:12:59.986Z,100720.47
2018-11-02T16:15:27.743Z,100718.70
2018-11-02T16:17:55.495Z,100727.82
2018-11-02T16:20:23.330Z,100722.56
2018-11-02T16:22:51.388Z,100721.09
2018-11-02T16:25:19.191Z,100726.66
2018-11-02T16:27:46.936Z,100732.11
2018-11-02T16:30:14.716Z,100729.22
2018-11-02T16:32:42.439Z,100733.91
2018-11-02T16:35:10.816Z,100735.23
2018-11-02T16:37:38.554Z,100740.53
2018-11-02T16:40:08.923Z,100734.00
2018-11-02T16:42:36.666Z,100740.88
2018-11-02T16:45:05.414Z,100741.55
2018-11-02T16:47:33.191Z,100746.02
2018-11-02T16:50:00.946Z,100748.37
2018-11-02T16:52:28.716Z,100754.81
2018-11-02T16:54:56.478Z,100758.58
2018-11-02T16:57:24.360Z,100755.73
2018-11-02T16:59:52.252Z,100759.44
2018-11-02T17:02:20.014Z,100759.92
2018-11-02T17:04:47.842Z,100761.95
2018-11-02T17:07:15.543Z,100765.84
2018-11-02T17:09:43.271Z,100767.41
2018-11-02T17:12:11.048Z,100764.58
2018-11-02T17:14:38.841Z,100768.93
2018-11-02T17:17:06.554Z,100780.24
2018-11-02T17:19:34.298Z,100778.61
2018-11-02T17:22:02.057Z,100786.41
2018-11-02T17:24:29.810Z,100781.27
2018-11-02T17:26:57.566Z,100780.49
2018-11-02T17:29:25.315Z,100781.41
2018-11-02T17:31:53.098Z,100789.53
2018-11-02T17:34:20.849Z,100789.13
2018-11-02T17:36:48.612Z,100789.77
2018-11-02T17:39:16.358Z,100780.30
2018-11-02T17:41:44.112Z,100783.20
2018-11-02T17:44:11.883Z,100787.55
2018-11-02T17:46:39.642Z,100785.61
2018-11-02T17:49:07.382Z,100786.73
2018-11-02T17:51:35.137Z,100793.77
2018-11-02T17:54:02.898Z,100788.85
2018-11-02T17:56:30.633Z,100789.63
2018-11-02T17:58:58.380Z,100786.66
2018-11-02T18:01:26.202Z,100791.30
2018-11-02T18:03:53.944Z,100793.03
2018-11-02T18:06:21.711Z,100794.84
2018-11-02T18:08:49.471Z,100795.75
2018-11-02T18:11:17.269Z,100789.22
2018-11-02T18:13:45.182Z,100786.08
2018-11-02T18:16:12.974Z,100790.16
2018-11-02T18:18:41.111Z,100788.81
2018-11-02T18:21:08.832Z,100793.89
2018-11-02T18:23:36.561Z,100793.51
2018-11-02T18:26:04.923Z,100792.48
2018-11-02T18:28:32.678Z,100794.42
2018-11-02T18:31:00.454Z,100797.39
2018-11-02T18:33:28.250Z,100804.84
2018-11-02T18:35:56.014Z,100799.46
2018-11-02T18:38:23.747Z,100805.63
2018-11-02T18:40:51.502Z,100802.20
2018-11-02T18:43:19.227Z,100814.17
2018-11-02T18:45:46.962Z,100815.12
2018-11-02T18:48:14.816Z,100821.74
2018-11-02T18:50:42.472Z,100818.27
2018-11-02T18:53:10.335Z,100829.32
2018-11-02T18:55:38.075Z,100827.58
2018-11-02T18:58:06.205Z,100834.96
2018-11-02T19:00:33.840Z,100834.21
2018-11-02T19:03:01.667Z,100839.86
2018-11-02T19:05:29.474Z,100846.34
2018-11-02T19:07:57.162Z,100849.69
2018-11-02T19:10:24.934Z,100848.06
2018-11-02T19:12:52.689Z,100849.84
2018-11-02T19:15:20.454Z,100853.95
2018-11-02T19:17:48.227Z,100852.22
2018-11-02T19:20:16.316Z,100856.67
2018-11-02T19:22:44.167Z,100855.30
2018-11-02T19:25:13.007Z,100858.11
2018-11-02T19:27:40.867Z,100859.46
2018-11-02T19:30:10.439Z,100862.43
2018-11-02T19:32:38.308Z,100857.27
2018-11-02T19:35:06.823Z,100860.16
2018-11-02T19:37:34.523Z,100862.69
2018-11-02T19:40:02.339Z,100863.86
2018-11-02T19:42:30.102Z,100863.00
2018-11-02T19:44:57.988Z,100866.61
2018-11-02T19:47:31.297Z,100867.70
2018-11-02T19:49:59.055Z,100867.61
2018-11-02T19:52:26.814Z,100866.42
2018-11-02T19:54:54.578Z,100867.85
2018-11-02T19:57:22.447Z,100861.77
2018-11-02T19:59:50.154Z,100866.28
2018-11-02T20:02:17.911Z,100866.40
2018-11-02T20:04:45.648Z,100875.47
2018-11-02T20:07:13.378Z,100874.98
2018-11-02T20:09:41.107Z,100877.34
2018-11-02T20:12:08.854Z,100881.58
2018-11-02T20:14:36.619Z,100873.77
2018-11-02T20:17:04.442Z,100872.59
2018-11-02T20:19:32.198Z,100869.58
2018-11-02T20:21:59.954Z,100870.05
2018-11-02T20:24:27.722Z,100867.84
2018-11-02T20:26:55.491Z,100867.59
2018-11-02T20:29:23.224Z,100875.56
2018-11-02T20:31:51.096Z,100873.77
2018-11-02T20:34:18.939Z,100872.47
2018-11-02T20:36:46.683Z,100873.69
2018-11-02T20:39:14.526Z,100877.31
2018-11-02T20:41:42.214Z,100875.88
2018-11-02T20:44:10.295Z,100876.48
2018-11-02T20:46:38.051Z,100877.48
2018-11-02T20:49:05.946Z,100876.20
2018-11-02T20:51:33.760Z,100877.80
2018-11-02T20:54:01.552Z,100873.95
2018-11-02T20:56:29.374Z,100875.66
2018-11-02T20:58:57.127Z,100882.67
2018-11-02T21:01:24.879Z,100886.24
2018-11-02T21:03:52.695Z,100880.40
2018-11-02T21:06:20.469Z,100883.55
2018-11-02T21:08:48.287Z,100882.44
2018-11-02T21:11:15.986Z,100883.80
2018-11-02T21:13:43.755Z,100879.63
2018-11-02T21:16:11.527Z,100883.22
2018-11-02T21:18:39.310Z,100884.47
2018-11-02T21:21:07.099Z,100888.10
2018-11-02T21:23:34.781Z,100892.48
2018-11-02T21:26:02.526Z,100897.52
2018-11-02T21:28:30.287Z,100899.75
2018-11-02T21:30:58.035Z,100889.17
2018-11-02T21:33:25.782Z,100889.70
2018-11-02T21:35:53.522Z,100892.53
2018-11-02T21:38:21.382Z,100889.03
2018-11-02T21:40:49.052Z,100881.75
2018-11-02T21:43:16.795Z,100879.11
2018-11-02T21:45:44.579Z,100879.68
2018-11-02T21:48:12.991Z,100877.11
2018-11-02T21:50:40.758Z,100876.97
2018-11-02T21:53:08.482Z,100876.38
2018-11-02T21:55:36.222Z,100876.52
2018-11-02T21:58:04.046Z,100875.58
2018-11-02T22:00:31.828Z,100874.26
2018-11-02T22:02:59.586Z,100870.41
2018-11-02T22:05:27.321Z,100872.67
2018-11-02T22:07:55.061Z,100869.07
2018-11-02T22:10:22.799Z,100868.00
2018-11-02T22:12:50.539Z,100872.00
2018-11-02T22:15:18.270Z,100868.91
2018-11-02T22:17:46.014Z,100865.16
2018-11-02T22:20:14.606Z,100873.70
2018-11-02T22:22:42.410Z,100867.44
2018-11-02T22:25:11.117Z,100867.37
2018-11-02T22:27:38.869Z,100863.57
2018-11-02T22:30:09.030Z,100864.97
2018-11-02T22:32:36.780Z,100869.86
2018-11-02T22:35:04.706Z,100878.98
2018-11-02T22:37:32.492Z,100871.06
2018-11-02T22:40:00.224Z,100869.66
2018-11-02T22:42:27.956Z,100865.77
2018-11-02T22:44:55.730Z,100865.24
2018-11-02T22:47:23.470Z,100869.22
2018-11-02T22:49:51.198Z,100865.66
2018-11-02T22:52:19.206Z,100865.66
2018-11-02T22:54:46.986Z,100872.00
2018-11-02T22:57:14.796Z,100866.03
2018-11-02T22:59:42.757Z,100873.91
2018-11-02T23:02:10.514Z,100864.20
2018-11-02T23:04:38.270Z,100861.03
2018-11-02T23:07:06.158Z,100866.72
2018-11-02T23:09:33.974Z,100856.41
2018-11-02T23:12:01.718Z,100853.97
2018-11-02T23:14:29.454Z,100857.64
2018-11-02T23:16:57.351Z,100851.38
2018-11-02T23:19:25.104Z,100855.09
2018-11-02T23:21:52.873Z,100858.11
2018-11-02T23:24:20.614Z,100857.94
2018-11-02T23:26:48.373Z,100859.42
2018-11-02T23:29:16.120Z,100857.86
2018-11-02T23:31:43.883Z,100856.94
2018-11-02T23:34:11.704Z,100864.38
2018-11-02T23:36:39.502Z,100865.25
2018-11-02T23:39:07.938Z,100864.08
2018-11-02T23:41:35.711Z,100858.39
2018-11-02T23:44:03.637Z,100858.31
2018-11-02T23:46:31.407Z,100866.23
2018-11-02T23:48:59.180Z,100867.31
2018-11-02T23:51:26.943Z,100868.63
2018-11-02T23:53:54.735Z,100858.11
2018-11-02T23:56:22.509Z,100858.23
2018-11-02T23:58:50.238Z,100857.64
